createdAt,value
2019-05-05T00:00:05.809Z,1006.57
2019-05-05T00:01:05.809Z,1006.61
2019-05-05T00:02:05.822Z,1006.61
2019-05-05T00:03:05.834Z,1006.63
2019-05-05T00:04:05.849Z,1006.66
2019-05-05T00:05:08.419Z,1006.59
2019-05-05T00:06:05.875Z,1006.64
2019-05-05T00:07:05.887Z,1006.64
2019-05-05T00:08:05.899Z,1006.66
2019-05-05T00:09:05.911Z,1006.66
2019-05-05T00:10:05.928Z,1006.64
2019-05-05T00:11:05.938Z,1006.67
2019-05-05T00:12:05.950Z,1006.69
2019-05-05T00:13:05.962Z,1006.67
2019-05-05T00:14:05.981Z,1006.74
2019-05-05T00:15:05.990Z,1006.71
2019-05-05T00:16:06.001Z,1006.73
2019-05-05T00:17:06.013Z,1006.73
2019-05-05T00:18:06.027Z,1006.74
2019-05-05T00:19:06.042Z,1006.77
2019-05-05T00:20:06.053Z,1006.76
2019-05-05T00:21:06.150Z,1006.73
2019-05-05T00:22:06.119Z,1006.75
2019-05-05T00:23:06.146Z,1006.77
2019-05-05T00:24:06.140Z,1006.76
2019-05-05T00:25:06.152Z,1006.78
2019-05-05T00:26:06.176Z,1006.82
2019-05-05T00:27:06.205Z,1006.77
2019-05-05T00:28:06.203Z,1006.77
2019-05-05T00:29:06.207Z,1006.76
2019-05-05T00:30:06.203Z,1006.79
2019-05-05T00:31:06.205Z,1006.80
2019-05-05T00:32:06.207Z,1006.83
2019-05-05T00:33:06.215Z,1006.85
2019-05-05T00:34:06.227Z,1006.85
2019-05-05T00:35:06.241Z,1006.87
2019-05-05T00:36:07.870Z,1006.83
2019-05-05T00:37:06.268Z,1006.86
2019-05-05T00:38:06.278Z,1006.88
2019-05-05T00:39:06.295Z,1006.92
2019-05-05T00:40:06.305Z,1006.88
2019-05-05T00:41:06.314Z,1006.91
2019-05-05T00:42:06.327Z,1006.87
2019-05-05T00:43:06.339Z,1006.91
2019-05-05T00:44:06.356Z,1006.88
2019-05-05T00:45:06.362Z,1006.89
2019-05-05T00:46:06.381Z,1006.91
2019-05-05T00:47:06.390Z,1006.88
2019-05-05T00:48:06.403Z,1006.91
2019-05-05T00:49:06.415Z,1006.89
2019-05-05T00:50:06.427Z,1006.88
2019-05-05T00:51:06.441Z,1006.95
2019-05-05T00:52:06.456Z,1006.93
2019-05-05T00:53:06.465Z,1006.90
2019-05-05T00:54:06.476Z,1006.94
2019-05-05T00:55:06.489Z,1006.92
2019-05-05T00:56:06.501Z,1006.93
2019-05-05T00:57:06.513Z,1006.97
2019-05-05T00:58:06.525Z,1006.97
2019-05-05T00:59:06.541Z,1006.92
2019-05-05T01:00:06.556Z,1006.96
2019-05-05T01:01:06.568Z,1006.99
2019-05-05T01:02:06.581Z,1006.95
2019-05-05T01:03:06.590Z,1006.97
2019-05-05T01:04:06.602Z,1006.98
2019-05-05T01:05:06.613Z,1006.99
2019-05-05T01:06:06.627Z,1006.97
2019-05-05T01:07:06.640Z,1006.99
2019-05-05T01:08:06.658Z,1007.01
2019-05-05T01:09:06.664Z,1007.00
2019-05-05T01:10:06.675Z,1007.04
2019-05-05T01:11:06.690Z,1007.02
2019-05-05T01:12:06.702Z,1007.02
2019-05-05T01:13:06.712Z,1007.09
2019-05-05T01:14:06.727Z,1007.07
2019-05-05T01:15:06.736Z,1007.09
2019-05-05T01:16:06.750Z,1007.12
2019-05-05T01:17:06.763Z,1007.10
2019-05-05T01:18:06.777Z,1007.08
2019-05-05T01:19:06.787Z,1007.12
2019-05-05T01:20:07.080Z,1007.16
2019-05-05T01:21:06.817Z,1007.14
2019-05-05T01:22:06.823Z,1007.15
2019-05-05T01:23:06.836Z,1007.22
2019-05-05T01:24:06.847Z,1007.17
2019-05-05T01:25:06.860Z,1007.20
2019-05-05T01:26:06.875Z,1007.22
2019-05-05T01:27:06.885Z,1007.24
2019-05-05T01:28:06.900Z,1007.26
2019-05-05T01:29:06.910Z,1007.29
2019-05-05T01:30:06.920Z,1007.30
2019-05-05T01:31:06.935Z,1007.37
2019-05-05T01:32:06.943Z,1007.38
2019-05-05T01:33:06.956Z,1007.37
2019-05-05T01:34:06.969Z,1007.41
2019-05-05T01:35:06.982Z,1007.43
2019-05-05T01:36:06.998Z,1007.45
2019-05-05T01:37:07.007Z,1007.50
2019-05-05T01:38:07.019Z,1007.50
2019-05-05T01:39:07.029Z,1007.50
2019-05-05T01:40:07.044Z,1007.49
2019-05-05T01:41:07.054Z,1007.56
2019-05-05T01:42:07.067Z,1007.57
2019-05-05T01:43:07.079Z,1007.59
2019-05-05T01:44:07.092Z,1007.60
2019-05-05T01:45:07.103Z,1007.59
2019-05-05T01:46:07.117Z,1007.67
2019-05-05T01:47:07.128Z,1007.71
2019-05-05T01:48:07.140Z,1007.67
2019-05-05T01:49:07.151Z,1007.66
2019-05-05T01:50:17.272Z,1007.70
2019-05-05T01:51:07.179Z,1007.73
2019-05-05T01:52:07.188Z,1007.74
2019-05-05T01:53:07.212Z,1007.75
2019-05-05T01:54:07.212Z,1007.78
2019-05-05T01:55:07.225Z,1007.82
2019-05-05T01:56:07.234Z,1007.82
2019-05-05T01:57:07.249Z,1007.85
2019-05-05T01:58:07.260Z,1007.88
2019-05-05T01:59:07.275Z,1007.91
2019-05-05T02:00:07.285Z,1007.95
2019-05-05T02:01:07.296Z,1007.93
2019-05-05T02:02:07.308Z,1007.95
2019-05-05T02:03:07.324Z,1007.98
2019-05-05T02:04:07.335Z,1007.99
2019-05-05T02:05:07.345Z,1007.99
2019-05-05T02:06:07.357Z,1008.02
2019-05-05T02:07:07.372Z,1008.00
2019-05-05T02:08:07.382Z,1008.04
2019-05-05T02:09:07.394Z,1008.04
2019-05-05T02:10:07.415Z,1008.03
2019-05-05T02:11:07.418Z,1008.06
2019-05-05T02:12:07.433Z,1008.05
2019-05-05T02:13:07.444Z,1008.06
2019-05-05T02:14:07.456Z,1008.07
2019-05-05T02:15:07.467Z,1008.04
2019-05-05T02:16:07.476Z,1008.05
2019-05-05T02:17:07.489Z,1008.08
2019-05-05T02:18:07.500Z,1008.06
2019-05-05T02:19:07.514Z,1008.08
2019-05-05T02:20:07.527Z,1008.08
2019-05-05T02:21:07.540Z,1008.03
2019-05-05T02:22:07.549Z,1008.08
2019-05-05T02:23:07.561Z,1008.04
2019-05-05T02:24:07.573Z,1008.05
2019-05-05T02:25:07.584Z,1008.08
2019-05-05T02:26:07.596Z,1008.08
2019-05-05T02:27:07.612Z,1008.06
2019-05-05T02:28:07.620Z,1008.07
2019-05-05T02:29:07.631Z,1008.07
2019-05-05T02:30:07.645Z,1008.08
2019-05-05T02:31:07.660Z,1008.10
2019-05-05T02:32:07.674Z,1008.09
2019-05-05T02:33:07.684Z,1008.06
2019-05-05T02:34:07.694Z,1008.09
2019-05-05T02:35:07.706Z,1008.08
2019-05-05T02:36:07.716Z,1008.09
2019-05-05T02:37:07.742Z,1008.10
2019-05-05T02:38:07.741Z,1008.12
2019-05-05T02:39:07.752Z,1008.13
2019-05-05T02:40:07.853Z,1008.16
2019-05-05T02:41:07.777Z,1008.17
2019-05-05T02:42:07.792Z,1008.25
2019-05-05T02:43:07.800Z,1008.22
2019-05-05T02:44:07.812Z,1008.23
2019-05-05T02:45:07.822Z,1008.22
2019-05-05T02:46:07.837Z,1008.26
2019-05-05T02:47:07.845Z,1008.28
2019-05-05T02:48:07.863Z,1008.26
2019-05-05T02:49:07.890Z,1008.26
2019-05-05T02:50:07.916Z,1008.29
2019-05-05T02:51:07.952Z,1008.26
2019-05-05T02:52:07.973Z,1008.32
2019-05-05T02:53:07.959Z,1008.38
2019-05-05T02:54:07.956Z,1008.33
2019-05-05T02:55:08.027Z,1008.38
2019-05-05T02:56:08.021Z,1008.38
2019-05-05T02:57:08.020Z,1008.40
2019-05-05T02:58:08.025Z,1008.44
2019-05-05T02:59:08.024Z,1008.41
2019-05-05T03:00:08.019Z,1008.44
2019-05-05T03:01:08.016Z,1008.47
2019-05-05T03:02:08.023Z,1008.45
2019-05-05T03:03:08.035Z,1008.44
2019-05-05T03:04:08.048Z,1008.49
2019-05-05T03:05:08.056Z,1008.45
2019-05-05T03:06:08.070Z,1008.48
2019-05-05T03:07:08.083Z,1008.43
2019-05-05T03:08:08.095Z,1008.45
2019-05-05T03:09:08.107Z,1008.47
2019-05-05T03:10:08.118Z,1008.48
2019-05-05T03:11:08.130Z,1008.52
2019-05-05T03:12:10.871Z,1008.51
2019-05-05T03:13:08.151Z,1008.55
2019-05-05T03:14:08.165Z,1008.51
2019-05-05T03:15:08.178Z,1008.54
2019-05-05T03:16:08.189Z,1008.59
2019-05-05T03:17:08.200Z,1008.56
2019-05-05T03:18:08.210Z,1008.56
2019-05-05T03:19:08.225Z,1008.64
2019-05-05T03:20:08.235Z,1008.62
2019-05-05T03:21:08.246Z,1008.65
2019-05-05T03:22:08.257Z,1008.71
2019-05-05T03:23:08.270Z,1008.70
2019-05-05T03:24:08.282Z,1008.74
2019-05-05T03:25:08.293Z,1008.73
2019-05-05T03:26:08.304Z,1008.75
2019-05-05T03:27:08.316Z,1008.74
2019-05-05T03:28:08.330Z,1008.81
2019-05-05T03:29:08.340Z,1008.86
2019-05-05T03:30:08.351Z,1008.84
2019-05-05T03:31:08.370Z,1008.84
2019-05-05T03:32:11.436Z,1008.85
2019-05-05T03:33:08.389Z,1008.85
2019-05-05T03:34:08.401Z,1008.86
2019-05-05T03:35:08.413Z,1008.83
2019-05-05T03:36:08.420Z,1008.84
2019-05-05T03:37:08.432Z,1008.84
2019-05-05T03:38:08.444Z,1008.85
2019-05-05T03:39:08.458Z,1008.85
2019-05-05T03:40:08.467Z,1008.86
2019-05-05T03:41:08.479Z,1008.89
2019-05-05T03:42:08.489Z,1008.86
2019-05-05T03:43:08.505Z,1008.83
2019-05-05T03:44:08.515Z,1008.87
2019-05-05T03:45:08.524Z,1008.88
2019-05-05T03:46:08.538Z,1008.89
2019-05-05T03:47:08.549Z,1008.88
2019-05-05T03:48:08.559Z,1008.92
2019-05-05T03:49:08.572Z,1008.95
2019-05-05T03:50:08.584Z,1008.94
2019-05-05T03:51:18.128Z,1008.99
2019-05-05T03:52:08.611Z,1009.05
2019-05-05T03:53:08.617Z,1009.04
2019-05-05T03:54:08.631Z,1009.10
2019-05-05T03:55:08.648Z,1009.08
2019-05-05T03:56:08.653Z,1009.10
2019-05-05T03:57:08.667Z,1009.13
2019-05-05T03:58:08.678Z,1009.15
2019-05-05T03:59:08.699Z,1009.15
2019-05-05T04:00:08.699Z,1009.15
2019-05-05T04:01:08.710Z,1009.15
2019-05-05T04:02:08.723Z,1009.15
2019-05-05T04:03:08.734Z,1009.15
2019-05-05T04:04:08.746Z,1009.19
2019-05-05T04:05:08.756Z,1009.16
2019-05-05T04:06:08.771Z,1009.19
2019-05-05T04:07:08.779Z,1009.16
2019-05-05T04:08:08.795Z,1009.18
2019-05-05T04:09:08.809Z,1009.23
2019-05-05T04:10:08.815Z,1009.21
2019-05-05T04:11:08.829Z,1009.22
2019-05-05T04:12:08.840Z,1009.23
2019-05-05T04:13:08.850Z,1009.19
2019-05-05T04:14:08.861Z,1009.24
2019-05-05T04:15:08.871Z,1009.24
2019-05-05T04:16:08.884Z,1009.25
2019-05-05T04:17:08.896Z,1009.22
2019-05-05T04:18:08.911Z,1009.19
2019-05-05T04:19:08.920Z,1009.29
2019-05-05T04:20:08.932Z,1009.29
2019-05-05T04:21:08.943Z,1009.29
2019-05-05T04:22:08.955Z,1009.28
2019-05-05T04:23:08.967Z,1009.27
2019-05-05T04:24:08.979Z,1009.32
2019-05-05T04:25:08.991Z,1009.34
2019-05-05T04:26:09.002Z,1009.35
2019-05-05T04:27:09.011Z,1009.35
2019-05-05T04:28:09.029Z,1009.38
2019-05-05T04:29:09.035Z,1009.39
2019-05-05T04:30:09.046Z,1009.42
2019-05-05T04:31:09.061Z,1009.42
2019-05-05T04:32:09.073Z,1009.39
2019-05-05T04:33:09.085Z,1009.43
2019-05-05T04:34:09.103Z,1009.42
2019-05-05T04:35:09.108Z,1009.43
2019-05-05T04:36:09.121Z,1009.45
2019-05-05T04:37:09.130Z,1009.45
2019-05-05T04:38:09.144Z,1009.46
2019-05-05T04:39:09.155Z,1009.46
2019-05-05T04:40:09.170Z,1009.42
2019-05-05T04:41:09.178Z,1009.47
2019-05-05T04:42:09.189Z,1009.50
2019-05-05T04:43:09.199Z,1009.50
2019-05-05T04:44:09.216Z,1009.49
2019-05-05T04:45:09.231Z,1009.47
2019-05-05T04:46:09.242Z,1009.51
2019-05-05T04:47:09.251Z,1009.49
2019-05-05T04:48:09.265Z,1009.49
2019-05-05T04:49:09.276Z,1009.51
2019-05-05T04:50:09.286Z,1009.49
2019-05-05T04:51:09.299Z,1009.55
2019-05-05T04:52:09.309Z,1009.54
2019-05-05T04:53:09.322Z,1009.53
2019-05-05T04:54:09.334Z,1009.54
2019-05-05T04:55:09.346Z,1009.54
2019-05-05T04:56:09.360Z,1009.56
2019-05-05T04:57:09.369Z,1009.59
2019-05-05T04:58:09.384Z,1009.56
2019-05-05T04:59:09.396Z,1009.57
2019-05-05T05:00:09.408Z,1009.55
2019-05-05T05:01:09.420Z,1009.53
2019-05-05T05:02:09.429Z,1009.56
2019-05-05T05:03:09.451Z,1009.56
2019-05-05T05:04:09.459Z,1009.56
2019-05-05T05:05:09.468Z,1009.54
2019-05-05T05:06:09.484Z,1009.56
2019-05-05T05:07:09.493Z,1009.59
2019-05-05T05:08:09.510Z,1009.58
2019-05-05T05:09:09.517Z,1009.60
2019-05-05T05:10:09.528Z,1009.55
2019-05-05T05:11:09.542Z,1009.57
2019-05-05T05:12:09.556Z,1009.60
2019-05-05T05:13:09.569Z,1009.62
2019-05-05T05:14:09.579Z,1009.60
2019-05-05T05:15:09.591Z,1009.58
2019-05-05T05:16:09.604Z,1009.62
2019-05-05T05:17:09.618Z,1009.63
2019-05-05T05:18:09.630Z,1009.60
2019-05-05T05:19:09.640Z,1009.61
2019-05-05T05:20:09.654Z,1009.58
2019-05-05T05:21:09.667Z,1009.59
2019-05-05T05:22:09.679Z,1009.64
2019-05-05T05:23:09.772Z,1009.59
2019-05-05T05:24:09.778Z,1009.64
2019-05-05T05:25:09.786Z,1009.63
2019-05-05T05:26:09.784Z,1009.63
2019-05-05T05:27:09.766Z,1009.62
2019-05-05T05:28:09.791Z,1009.64
2019-05-05T05:29:09.826Z,1009.65
2019-05-05T05:30:09.837Z,1009.64
2019-05-05T05:31:09.828Z,1009.67
2019-05-05T05:32:09.826Z,1009.68
2019-05-05T05:33:09.840Z,1009.67
2019-05-05T05:34:09.832Z,1009.73
2019-05-05T05:35:09.845Z,1009.73
2019-05-05T05:36:09.860Z,1009.75
2019-05-05T05:37:09.869Z,1009.77
2019-05-05T05:38:09.882Z,1009.75
2019-05-05T05:39:09.896Z,1009.79
2019-05-05T05:40:09.909Z,1009.82
2019-05-05T05:41:09.921Z,1009.81
2019-05-05T05:42:09.934Z,1009.82
2019-05-05T05:43:09.948Z,1009.86
2019-05-05T05:44:09.961Z,1009.87
2019-05-05T05:45:09.974Z,1009.87
2019-05-05T05:46:09.984Z,1009.81
2019-05-05T05:47:09.999Z,1009.82
2019-05-05T05:48:10.015Z,1009.75
2019-05-05T05:49:10.024Z,1009.82
2019-05-05T05:50:10.040Z,1009.82
2019-05-05T05:51:10.055Z,1009.83
2019-05-05T05:52:15.889Z,1009.84
2019-05-05T05:53:10.079Z,1009.86
2019-05-05T05:54:10.093Z,1009.83
2019-05-05T05:55:10.106Z,1009.86
2019-05-05T05:56:10.122Z,1009.90
2019-05-05T05:57:10.132Z,1009.92
2019-05-05T05:58:10.146Z,1009.96
2019-05-05T05:59:10.160Z,1009.96
2019-05-05T06:00:10.177Z,1010.00
2019-05-05T06:01:10.187Z,1010.00
2019-05-05T06:02:13.464Z,1010.01
2019-05-05T06:03:10.213Z,1010.02
2019-05-05T06:04:10.233Z,1010.04
2019-05-05T06:05:10.242Z,1010.02
2019-05-05T06:06:10.256Z,1010.03
2019-05-05T06:07:10.270Z,1010.04
2019-05-05T06:08:10.285Z,1010.08
2019-05-05T06:09:10.295Z,1010.10
2019-05-05T06:10:21.325Z,1010.12
2019-05-05T06:11:10.325Z,1010.14
2019-05-05T06:12:10.336Z,1010.11
2019-05-05T06:13:10.350Z,1010.10
2019-05-05T06:14:10.377Z,1010.11
2019-05-05T06:15:10.382Z,1010.17
2019-05-05T06:16:10.392Z,1010.19
2019-05-05T06:17:10.407Z,1010.24
2019-05-05T06:18:10.422Z,1010.21
2019-05-05T06:19:10.466Z,1010.25
2019-05-05T06:20:10.451Z,1010.24
2019-05-05T06:21:10.466Z,1010.25
2019-05-05T06:22:10.478Z,1010.26
2019-05-05T06:23:10.497Z,1010.31
2019-05-05T06:24:10.510Z,1010.32
2019-05-05T06:25:10.524Z,1010.30
2019-05-05T06:26:10.539Z,1010.30
2019-05-05T06:27:10.556Z,1010.34
2019-05-05T06:28:10.571Z,1010.28
2019-05-05T06:29:10.585Z,1010.27
2019-05-05T06:30:10.600Z,1010.29
2019-05-05T06:31:10.622Z,1010.33
2019-05-05T06:32:10.637Z,1010.34
2019-05-05T06:33:10.649Z,1010.31
2019-05-05T06:34:10.669Z,1010.32
2019-05-05T06:35:10.686Z,1010.29
2019-05-05T06:36:10.704Z,1010.37
2019-05-05T06:37:10.720Z,1010.31
2019-05-05T06:38:10.736Z,1010.39
2019-05-05T06:39:10.754Z,1010.36
2019-05-05T06:40:10.775Z,1010.37
2019-05-05T06:41:10.795Z,1010.33
2019-05-05T06:42:10.814Z,1010.33
2019-05-05T06:43:10.831Z,1010.40
2019-05-05T06:44:10.859Z,1010.43
2019-05-05T06:45:10.867Z,1010.43
2019-05-05T06:46:10.886Z,1010.40
2019-05-05T06:47:10.906Z,1010.48
2019-05-05T06:48:10.925Z,1010.52
2019-05-05T06:49:10.945Z,1010.50
2019-05-05T06:50:10.964Z,1010.54
2019-05-05T06:51:10.984Z,1010.53
2019-05-05T06:52:11.007Z,1010.53
2019-05-05T06:53:11.023Z,1010.50
2019-05-05T06:54:11.043Z,1010.52
2019-05-05T06:55:11.062Z,1010.53
2019-05-05T06:56:11.084Z,1010.50
2019-05-05T06:57:11.103Z,1010.51
2019-05-05T06:58:11.124Z,1010.49
2019-05-05T06:59:11.148Z,1010.48
2019-05-05T07:00:11.164Z,1010.48
2019-05-05T07:01:11.183Z,1010.46
2019-05-05T07:02:11.205Z,1010.48
2019-05-05T07:03:11.227Z,1010.50
2019-05-05T07:04:11.245Z,1010.52
2019-05-05T07:05:11.264Z,1010.49
2019-05-05T07:06:11.290Z,1010.50
2019-05-05T07:07:11.309Z,1010.50
2019-05-05T07:08:13.606Z,1010.57
2019-05-05T07:09:11.352Z,1010.57
2019-05-05T07:10:11.376Z,1010.51
2019-05-05T07:11:11.431Z,1010.48
2019-05-05T07:12:13.632Z,1010.52
2019-05-05T07:13:11.437Z,1010.52
2019-05-05T07:14:11.463Z,1010.51
2019-05-05T07:15:11.485Z,1010.53
2019-05-05T07:16:12.832Z,1010.51
2019-05-05T07:17:11.528Z,1010.54
2019-05-05T07:18:11.576Z,1010.48
2019-05-05T07:19:11.626Z,1010.48
2019-05-05T07:20:13.447Z,1010.49
2019-05-05T07:21:11.690Z,1010.45
2019-05-05T07:22:13.865Z,1010.44
2019-05-05T07:23:11.701Z,1010.45
2019-05-05T07:24:11.706Z,1010.41
2019-05-05T07:25:13.620Z,1010.45
2019-05-05T07:26:11.732Z,1010.45
2019-05-05T07:27:13.649Z,1010.47
2019-05-05T07:28:11.779Z,1010.43
2019-05-05T07:29:11.804Z,1010.46
2019-05-05T07:30:13.610Z,1010.49
2019-05-05T07:31:11.850Z,1010.50
2019-05-05T07:32:13.969Z,1010.42
2019-05-05T07:33:11.896Z,1010.40
2019-05-05T07:34:13.573Z,1010.45
2019-05-05T07:35:11.947Z,1010.43
2019-05-05T07:36:14.373Z,1010.43
2019-05-05T07:37:14.257Z,1010.44
2019-05-05T07:38:13.790Z,1010.42
2019-05-05T07:39:14.223Z,1010.46
2019-05-05T07:40:13.564Z,1010.50
2019-05-05T07:41:14.034Z,1010.49
2019-05-05T07:42:13.722Z,1010.50
2019-05-05T07:43:12.136Z,1010.54
2019-05-05T07:44:25.088Z,1010.51
2019-05-05T07:45:20.374Z,1010.52
2019-05-05T07:46:13.574Z,1010.54
2019-05-05T07:47:14.467Z,1010.52
2019-05-05T07:48:13.827Z,1010.56
2019-05-05T07:49:13.897Z,1010.55
2019-05-05T07:50:27.917Z,1010.59
2019-05-05T07:51:13.969Z,1010.60
2019-05-05T07:52:14.869Z,1010.57
2019-05-05T07:53:15.053Z,1010.60
2019-05-05T07:54:14.315Z,1010.59
2019-05-05T07:55:14.241Z,1010.64
2019-05-05T07:56:14.287Z,1010.57
2019-05-05T07:57:14.493Z,1010.64
2019-05-05T07:58:13.876Z,1010.64
2019-05-05T07:59:14.408Z,1010.64
2019-05-05T08:00:14.631Z,1010.67
2019-05-05T08:01:14.075Z,1010.67
2019-05-05T08:02:14.428Z,1010.68
2019-05-05T08:03:14.400Z,1010.78
2019-05-05T08:04:13.670Z,1010.76
2019-05-05T08:05:14.128Z,1010.72
2019-05-05T08:06:14.385Z,1010.72
2019-05-05T08:07:14.558Z,1010.75
2019-05-05T08:08:13.944Z,1010.83
2019-05-05T08:09:14.547Z,1010.75
2019-05-05T08:10:13.662Z,1010.76
2019-05-05T08:11:14.494Z,1010.74
2019-05-05T08:12:13.701Z,1010.71
2019-05-05T08:13:14.114Z,1010.66
2019-05-05T08:14:14.588Z,1010.66
2019-05-05T08:15:14.647Z,1010.63
2019-05-05T08:16:14.104Z,1010.66
2019-05-05T08:17:14.587Z,1010.58
2019-05-05T08:18:13.861Z,1010.59
2019-05-05T08:19:13.779Z,1010.62
2019-05-05T08:20:14.283Z,1010.68
2019-05-05T08:21:13.655Z,1010.66
2019-05-05T08:22:14.166Z,1010.63
2019-05-05T08:23:28.177Z,1010.66
2019-05-05T08:24:13.995Z,1010.65
2019-05-05T08:25:14.478Z,1010.75
2019-05-05T08:26:13.748Z,1010.76
2019-05-05T08:27:14.449Z,1010.83
2019-05-05T08:28:14.699Z,1010.80
2019-05-05T08:29:13.662Z,1010.75
2019-05-05T08:30:14.078Z,1010.75
2019-05-05T08:31:14.487Z,1010.81
2019-05-05T08:32:13.647Z,1010.75
2019-05-05T08:33:14.063Z,1010.77
2019-05-05T08:34:14.255Z,1010.78
2019-05-05T08:35:14.742Z,1010.79
2019-05-05T08:36:14.707Z,1010.78
2019-05-05T08:37:14.644Z,1010.82
2019-05-05T08:38:13.791Z,1010.83
2019-05-05T08:39:14.269Z,1010.81
2019-05-05T08:40:14.794Z,1010.90
2019-05-05T08:41:13.878Z,1010.94
2019-05-05T08:42:14.423Z,1010.97
2019-05-05T08:43:13.889Z,1011.02
2019-05-05T08:44:14.566Z,1010.97
2019-05-05T08:45:13.889Z,1010.96
2019-05-05T08:46:14.349Z,1010.96
2019-05-05T08:47:13.887Z,1010.94
2019-05-05T08:48:14.257Z,1010.98
2019-05-05T08:49:13.784Z,1010.97
2019-05-05T08:50:13.779Z,1011.02
2019-05-05T08:51:14.090Z,1011.06
2019-05-05T08:52:14.515Z,1011.06
2019-05-05T08:53:13.951Z,1011.13
2019-05-05T08:54:14.304Z,1011.12
2019-05-05T08:55:14.003Z,1011.06
2019-05-05T08:56:14.654Z,1011.00
2019-05-05T08:57:14.641Z,1011.04
2019-05-05T08:58:14.900Z,1011.07
2019-05-05T08:59:14.342Z,1011.05
2019-05-05T09:00:13.938Z,1011.03
2019-05-05T09:01:14.947Z,1010.96
2019-05-05T09:02:14.996Z,1010.95
2019-05-05T09:03:14.026Z,1010.88
2019-05-05T09:04:14.245Z,1010.91
2019-05-05T09:05:14.455Z,1010.88
2019-05-05T09:06:13.999Z,1010.94
2019-05-05T09:07:14.019Z,1010.97
2019-05-05T09:08:14.073Z,1010.99
2019-05-05T09:09:14.537Z,1010.98
2019-05-05T09:10:14.302Z,1010.94
2019-05-05T09:11:14.167Z,1010.96
2019-05-05T09:12:14.196Z,1010.93
2019-05-05T09:13:14.419Z,1010.92
2019-05-05T09:14:14.982Z,1011.01
2019-05-05T09:15:14.177Z,1011.01
2019-05-05T09:16:14.530Z,1011.07
2019-05-05T09:17:14.216Z,1010.99
2019-05-05T09:18:14.308Z,1011.01
2019-05-05T09:19:14.612Z,1011.11
2019-05-05T09:20:14.275Z,1010.99
2019-05-05T09:21:14.294Z,1010.98
2019-05-05T09:22:14.312Z,1010.99
2019-05-05T09:23:14.787Z,1010.91
2019-05-05T09:24:14.448Z,1010.90
2019-05-05T09:25:14.376Z,1010.90
2019-05-05T09:26:14.390Z,1010.86
2019-05-05T09:27:14.414Z,1010.84
2019-05-05T09:28:14.785Z,1010.91
2019-05-05T09:29:14.451Z,1010.96
2019-05-05T09:30:14.468Z,1010.96
2019-05-05T09:31:14.714Z,1010.98
2019-05-05T09:32:14.506Z,1011.06
2019-05-05T09:33:16.377Z,1011.11
2019-05-05T09:34:14.721Z,1011.05
2019-05-05T09:35:14.566Z,1011.09
2019-05-05T09:36:14.582Z,1011.00
2019-05-05T09:37:14.604Z,1011.01
2019-05-05T09:38:14.821Z,1011.04
2019-05-05T09:39:14.645Z,1011.02
2019-05-05T09:40:14.662Z,1011.00
2019-05-05T09:41:14.681Z,1011.00
2019-05-05T09:42:14.761Z,1011.02
2019-05-05T09:43:14.984Z,1011.07
2019-05-05T09:44:14.741Z,1011.06
2019-05-05T09:45:14.763Z,1011.07
2019-05-05T09:46:14.783Z,1011.14
2019-05-05T09:47:14.802Z,1011.18
2019-05-05T09:48:14.825Z,1011.22
2019-05-05T09:49:14.845Z,1011.21
2019-05-05T09:50:14.861Z,1011.33
2019-05-05T09:51:14.884Z,1011.27
2019-05-05T09:52:14.908Z,1011.26
2019-05-05T09:53:14.922Z,1011.26
2019-05-05T09:54:17.390Z,1011.13
2019-05-05T09:55:14.966Z,1011.08
2019-05-05T09:56:14.989Z,1011.06
2019-05-05T09:57:15.008Z,1011.00
2019-05-05T09:58:15.028Z,1010.96
2019-05-05T09:59:15.052Z,1010.96
2019-05-05T10:00:15.074Z,1011.00
2019-05-05T10:01:15.098Z,1011.02
2019-05-05T10:02:15.121Z,1011.01
2019-05-05T10:03:15.148Z,1011.04
2019-05-05T10:04:15.165Z,1011.12
2019-05-05T10:05:15.185Z,1011.10
2019-05-05T10:06:15.209Z,1011.16
2019-05-05T10:07:15.229Z,1011.15
2019-05-05T10:08:15.255Z,1011.15
2019-05-05T10:09:15.276Z,1011.21
2019-05-05T10:10:15.297Z,1011.30
2019-05-05T10:11:16.677Z,1011.22
2019-05-05T10:12:15.417Z,1011.24
2019-05-05T10:13:15.409Z,1011.28
2019-05-05T10:14:15.431Z,1011.28
2019-05-05T10:15:15.485Z,1011.24
2019-05-05T10:16:15.477Z,1011.24
2019-05-05T10:17:15.476Z,1011.21
2019-05-05T10:18:15.482Z,1011.23
2019-05-05T10:19:15.505Z,1011.13
2019-05-05T10:20:15.527Z,1011.19
2019-05-05T10:21:17.724Z,1011.26
2019-05-05T10:22:15.579Z,1011.21
2019-05-05T10:23:15.607Z,1011.18
2019-05-05T10:24:27.822Z,1011.20
2019-05-05T10:25:15.658Z,1011.16
2019-05-05T10:26:15.685Z,1011.21
2019-05-05T10:27:15.714Z,1011.17
2019-05-05T10:28:15.743Z,1011.17
2019-05-05T10:29:15.765Z,1011.11
2019-05-05T10:30:15.791Z,1011.21
2019-05-05T10:31:15.818Z,1011.16
2019-05-05T10:32:15.845Z,1011.30
2019-05-05T10:33:15.870Z,1011.26
2019-05-05T10:34:15.895Z,1011.27
2019-05-05T10:35:15.922Z,1011.25
2019-05-05T10:36:15.947Z,1011.25
2019-05-05T10:37:15.978Z,1011.27
2019-05-05T10:38:15.998Z,1011.26
2019-05-05T10:39:16.026Z,1011.29
2019-05-05T10:40:16.054Z,1011.34
2019-05-05T10:41:16.080Z,1011.31
2019-05-05T10:42:16.109Z,1011.25
2019-05-05T10:43:16.138Z,1011.26
2019-05-05T10:44:16.169Z,1011.11
2019-05-05T10:45:16.195Z,1011.15
2019-05-05T10:46:16.225Z,1011.16
2019-05-05T10:47:16.257Z,1011.17
2019-05-05T10:48:16.289Z,1011.21
2019-05-05T10:49:16.316Z,1011.18
2019-05-05T10:50:16.345Z,1011.17
2019-05-05T10:51:16.374Z,1011.29
2019-05-05T10:52:16.403Z,1011.24
2019-05-05T10:53:16.432Z,1011.25
2019-05-05T10:54:16.462Z,1011.27
2019-05-05T10:55:16.490Z,1011.22
2019-05-05T10:56:16.520Z,1011.14
2019-05-05T10:57:18.421Z,1011.15
2019-05-05T10:58:16.583Z,1011.15
2019-05-05T10:59:16.608Z,1011.15
2019-05-05T11:00:16.640Z,1011.11
2019-05-05T11:01:16.670Z,1011.13
2019-05-05T11:02:16.702Z,1011.10
2019-05-05T11:03:16.734Z,1011.03
2019-05-05T11:04:16.766Z,1011.10
2019-05-05T11:05:16.798Z,1011.08
2019-05-05T11:06:16.830Z,1011.04
2019-05-05T11:07:16.865Z,1011.03
2019-05-05T11:08:16.897Z,1011.03
2019-05-05T11:09:16.929Z,1010.90
2019-05-05T11:10:16.962Z,1010.86
2019-05-05T11:11:17.004Z,1010.94
2019-05-05T11:12:17.032Z,1011.01
2019-05-05T11:13:17.071Z,1011.04
2019-05-05T11:14:17.096Z,1011.03
2019-05-05T11:15:17.128Z,1010.96
2019-05-05T11:16:17.160Z,1010.96
2019-05-05T11:17:17.190Z,1011.07
2019-05-05T11:18:17.224Z,1011.11
2019-05-05T11:19:17.307Z,1011.26
2019-05-05T11:20:17.347Z,1011.25
2019-05-05T11:21:17.388Z,1011.10
2019-05-05T11:22:17.402Z,1011.18
2019-05-05T11:23:17.391Z,1011.20
2019-05-05T11:24:17.399Z,1011.21
2019-05-05T11:25:17.426Z,1011.27
2019-05-05T11:26:17.451Z,1011.31
2019-05-05T11:27:17.480Z,1011.32
2019-05-05T11:28:17.508Z,1011.35
2019-05-05T11:29:17.531Z,1011.30
2019-05-05T11:30:17.560Z,1011.34
2019-05-05T11:31:17.589Z,1011.29
2019-05-05T11:32:17.615Z,1011.31
2019-05-05T11:33:17.639Z,1011.35
2019-05-05T11:34:17.665Z,1011.35
2019-05-05T11:35:17.691Z,1011.35
2019-05-05T11:36:17.720Z,1011.36
2019-05-05T11:37:17.744Z,1011.34
2019-05-05T11:38:17.769Z,1011.38
2019-05-05T11:39:17.795Z,1011.37
2019-05-05T11:40:17.819Z,1011.36
2019-05-05T11:41:17.842Z,1011.36
2019-05-05T11:42:17.873Z,1011.42
2019-05-05T11:43:17.892Z,1011.34
2019-05-05T11:44:17.915Z,1011.37
2019-05-05T11:45:17.940Z,1011.33
2019-05-05T11:46:17.965Z,1011.26
2019-05-05T11:47:17.988Z,1011.27
2019-05-05T11:48:18.013Z,1011.30
2019-05-05T11:49:18.037Z,1011.27
2019-05-05T11:50:18.060Z,1011.32
2019-05-05T11:51:18.083Z,1011.30
2019-05-05T11:52:18.110Z,1011.34
2019-05-05T11:53:18.137Z,1011.25
2019-05-05T11:54:18.167Z,1011.17
2019-05-05T11:55:18.187Z,1011.24
2019-05-05T11:56:18.223Z,1011.31
2019-05-05T11:57:18.243Z,1011.31
2019-05-05T11:58:18.273Z,1011.47
2019-05-05T11:59:18.294Z,1011.47
2019-05-05T12:00:18.320Z,1011.51
2019-05-05T12:01:18.345Z,1011.36
2019-05-05T12:02:18.374Z,1011.40
2019-05-05T12:03:18.401Z,1011.40
2019-05-05T12:04:18.430Z,1011.34
2019-05-05T12:05:18.457Z,1011.36